createdAt,value
2022-08-07T00:02:40.730Z,102722.63
2022-08-07T00:05:05.832Z,102725.47
2022-08-07T00:07:40.403Z,102723.88
2022-08-07T00:10:30.666Z,102719.81
2022-08-07T00:13:17.440Z,102721.63
2022-08-07T00:15:52.350Z,102722.72
2022-08-07T00:18:25.108Z,102720.75
2022-08-07T00:20:56.784Z,102719.47
2022-08-07T00:23:28.548Z,102724.78
2022-08-07T00:26:06.854Z,102721.56
2022-08-07T00:28:56.550Z,102725.75
2022-08-07T00:31:37.647Z,102713.16
2022-08-07T00:34:10.101Z,102716.00
2022-08-07T00:36:42.937Z,102715.28
2022-08-07T00:39:17.098Z,102707.44
2022-08-07T00:42:01.315Z,102713.13
2022-08-07T00:44:30.361Z,102709.84
2022-08-07T00:46:59.663Z,102707.81
2022-08-07T00:50:19.991Z,102712.94
2022-08-07T00:52:17.693Z,102706.28
2022-08-07T00:54:53.729Z,102717.63
2022-08-07T00:57:23.239Z,102712.59
2022-08-07T00:59:55.266Z,102711.78
2022-08-07T01:02:29.095Z,102716.16
2022-08-07T01:05:00.011Z,102709.28
2022-08-07T01:07:31.164Z,102705.25
2022-08-07T01:10:05.935Z,102706.94
2022-08-07T01:12:39.900Z,102705.22
2022-08-07T01:15:35.684Z,102709.38
2022-08-07T01:18:17.576Z,102707.94
2022-08-07T01:20:57.329Z,102712.59
2022-08-07T01:23:39.404Z,102713.44
2022-08-07T01:26:14.258Z,102720.59
2022-08-07T01:28:48.709Z,102719.00
2022-08-07T01:31:27.919Z,102723.06
2022-08-07T01:34:14.125Z,102724.28
2022-08-07T01:36:44.430Z,102720.72
2022-08-07T01:39:41.399Z,102719.59
2022-08-07T01:42:40.249Z,102725.34
2022-08-07T01:45:17.908Z,102731.00
2022-08-07T01:48:20.039Z,102725.78
2022-08-07T01:50:43.213Z,102726.31
2022-08-07T01:53:20.819Z,102718.31
2022-08-07T01:56:04.193Z,102727.59
2022-08-07T01:58:40.163Z,102718.38
2022-08-07T02:01:59.445Z,102719.22
2022-08-07T02:04:07.584Z,102719.09
2022-08-07T02:06:39.154Z,102714.41
2022-08-07T02:09:11.891Z,102709.66
2022-08-07T02:12:17.895Z,102706.50
2022-08-07T02:14:55.200Z,102711.47
2022-08-07T02:17:52.032Z,102705.91
2022-08-07T02:20:24.493Z,102716.25
2022-08-07T02:22:59.939Z,102704.53
2022-08-07T02:26:10.589Z,102702.53
2022-08-07T02:28:25.516Z,102714.16
2022-08-07T02:31:16.560Z,102705.16
2022-08-07T02:34:02.791Z,102695.91
2022-08-07T02:36:37.633Z,102706.13
2022-08-07T02:39:17.354Z,102702.44
2022-08-07T02:42:10.088Z,102699.31
2022-08-07T02:44:52.098Z,102706.06
2022-08-07T02:47:28.295Z,102714.50
2022-08-07T02:50:18.436Z,102702.94
2022-08-07T02:52:54.737Z,102711.78
2022-08-07T02:56:03.327Z,102707.03
2022-08-07T02:58:27.242Z,102706.25
2022-08-07T03:01:01.121Z,102705.88
2022-08-07T03:03:49.400Z,102698.31
2022-08-07T03:06:26.233Z,102707.34
2022-08-07T03:09:04.560Z,102690.66
2022-08-07T03:11:39.018Z,102695.84
2022-08-07T03:14:22.499Z,102695.06
2022-08-07T03:16:53.393Z,102696.34
2022-08-07T03:19:22.955Z,102703.88
2022-08-07T03:21:52.652Z,102698.66
2022-08-07T03:24:27.353Z,102704.69
2022-08-07T03:27:03.158Z,102698.22
2022-08-07T03:29:49.594Z,102695.91
2022-08-07T03:32:37.476Z,102704.69
2022-08-07T03:35:17.867Z,102707.06
2022-08-07T03:37:55.102Z,102712.66
2022-08-07T03:40:36.448Z,102711.00
2022-08-07T03:43:14.549Z,102716.00
2022-08-07T03:45:51.182Z,102715.56
2022-08-07T03:48:26.996Z,102711.19
2022-08-07T03:51:00.262Z,102712.44
2022-08-07T03:54:06.010Z,102710.00
2022-08-07T03:56:34.913Z,102719.22
2022-08-07T03:59:08.809Z,102716.03
2022-08-07T04:01:45.835Z,102726.75
2022-08-07T04:04:18.889Z,102733.16
2022-08-07T04:06:53.242Z,102734.69
2022-08-07T04:09:25.722Z,102738.25
2022-08-07T04:12:25.063Z,102744.16
2022-08-07T04:14:59.559Z,102732.69
2022-08-07T04:18:31.097Z,102730.38
2022-08-07T04:20:21.759Z,102739.13
2022-08-07T04:23:01.828Z,102740.72
2022-08-07T04:25:40.918Z,102733.47
2022-08-07T04:28:13.447Z,102745.75
2022-08-07T04:30:57.250Z,102739.41
2022-08-07T04:33:35.859Z,102735.88
2022-08-07T04:36:08.841Z,102747.91
2022-08-07T04:38:40.174Z,102748.78
2022-08-07T04:41:13.995Z,102745.59
2022-08-07T04:44:12.843Z,102749.66
2022-08-07T04:47:04.232Z,102749.22
2022-08-07T04:49:47.375Z,102752.03
2022-08-07T04:52:35.671Z,102755.06
2022-08-07T04:57:10.781Z,102752.66
2022-08-07T04:58:34.868Z,102753.00
2022-08-07T05:01:13.629Z,102757.72
2022-08-07T05:04:08.014Z,102749.69
2022-08-07T05:06:53.041Z,102758.88
2022-08-07T05:09:45.730Z,102757.31
2022-08-07T05:12:26.528Z,102756.50
2022-08-07T05:15:21.658Z,102764.53
2022-08-07T05:18:00.713Z,102766.84
2022-08-07T05:20:35.965Z,102759.25
2022-08-07T05:23:15.551Z,102763.16
2022-08-07T05:26:13.471Z,102758.31
2022-08-07T05:28:42.024Z,102764.25
2022-08-07T05:31:21.629Z,102765.81
2022-08-07T05:34:04.367Z,102756.59
2022-08-07T05:36:39.204Z,102768.53
2022-08-07T05:40:13.595Z,102766.53
2022-08-07T05:42:12.324Z,102764.88
2022-08-07T05:44:46.487Z,102770.34
2022-08-07T05:48:00.271Z,102763.94
2022-08-07T05:50:15.627Z,102766.59
2022-08-07T05:52:44.302Z,102762.16
2022-08-07T05:55:22.356Z,102770.06
2022-08-07T05:57:55.123Z,102773.09
2022-08-07T06:00:25.453Z,102770.25
2022-08-07T06:03:02.930Z,102757.34
2022-08-07T06:05:33.133Z,102756.78
2022-08-07T06:08:29.250Z,102750.34
2022-08-07T06:11:00.252Z,102743.09
2022-08-07T06:14:12.013Z,102752.56
2022-08-07T06:16:29.220Z,102746.06
2022-08-07T06:19:00.792Z,102743.44
2022-08-07T06:22:14.427Z,102739.94
2022-08-07T06:24:39.153Z,102744.59
2022-08-07T06:27:07.915Z,102733.75
2022-08-07T06:29:38.982Z,102726.75
2022-08-07T06:32:10.412Z,102726.38
2022-08-07T06:34:45.349Z,102714.84
2022-08-07T06:37:26.494Z,102709.97
2022-08-07T06:40:17.917Z,102716.06
2022-08-07T06:42:53.973Z,102701.56
2022-08-07T06:45:35.778Z,102703.53
2022-08-07T06:48:07.138Z,102699.47
2022-08-07T06:50:47.590Z,102695.13
2022-08-07T06:55:27.436Z,102695.63
2022-08-07T06:56:15.628Z,102688.53
2022-08-07T07:00:14.595Z,102691.06
2022-08-07T07:01:48.687Z,102696.13
2022-08-07T07:04:32.825Z,102700.38
2022-08-07T07:07:10.414Z,102697.59
2022-08-07T07:09:49.468Z,102692.22
2022-08-07T07:12:33.504Z,102688.47
2022-08-07T07:15:09.059Z,102691.44
2022-08-07T07:18:00.066Z,102688.63
2022-08-07T07:20:33.441Z,102688.47
2022-08-07T07:24:10.799Z,102686.34
2022-08-07T07:26:35.156Z,102688.91
2022-08-07T07:29:40.218Z,102684.91
2022-08-07T07:31:49.086Z,102684.75
2022-08-07T07:34:31.803Z,102680.06
2022-08-07T07:37:14.434Z,102673.63
2022-08-07T07:39:55.326Z,102675.13
2022-08-07T07:42:33.300Z,102673.56
2022-08-07T07:45:03.435Z,102681.69
2022-08-07T07:47:51.790Z,102682.69
2022-08-07T07:50:34.815Z,102684.47
2022-08-07T07:53:13.517Z,102677.31
2022-08-07T07:55:57.520Z,102676.69
2022-08-07T07:58:30.624Z,102670.88
2022-08-07T08:02:03.296Z,102665.91
2022-08-07T08:04:10.163Z,102660.72
2022-08-07T08:06:50.855Z,102661.28
2022-08-07T08:09:29.330Z,102658.34
2022-08-07T08:12:03.923Z,102664.13
2022-08-07T08:14:36.342Z,102662.84
2022-08-07T08:17:55.801Z,102657.28
2022-08-07T08:20:18.750Z,102657.63
2022-08-07T08:23:14.395Z,102650.81
2022-08-07T08:26:06.968Z,102650.69
2022-08-07T08:28:45.005Z,102646.88
2022-08-07T08:31:30.025Z,102635.09
2022-08-07T08:34:10.683Z,102642.69
2022-08-07T08:36:56.295Z,102646.94
2022-08-07T08:39:39.262Z,102637.75
2022-08-07T08:42:25.813Z,102637.72
2022-08-07T08:45:04.835Z,102632.53
2022-08-07T08:47:52.076Z,102633.41
2022-08-07T08:50:34.743Z,102633.78
2022-08-07T08:53:19.415Z,102621.22
2022-08-07T08:55:55.362Z,102624.19
2022-08-07T08:58:36.091Z,102626.56
2022-08-07T09:01:14.837Z,102624.69
2022-08-07T09:03:55.450Z,102625.50
2022-08-07T09:06:40.413Z,102635.25
2022-08-07T09:09:30.081Z,102628.47
2022-08-07T09:12:31.430Z,102633.38
2022-08-07T09:16:23.678Z,102624.56
2022-08-07T09:18:22.670Z,102617.44
2022-08-07T09:21:05.875Z,102618.97
2022-08-07T09:24:49.117Z,102609.53
2022-08-07T09:26:47.807Z,102618.81
2022-08-07T09:30:05.593Z,102604.88
2022-08-07T09:32:26.324Z,102615.72
2022-08-07T09:36:05.296Z,102611.13
2022-08-07T09:38:00.449Z,102614.81
2022-08-07T09:40:36.646Z,102612.84
2022-08-07T09:43:40.276Z,102590.22
2022-08-07T09:47:51.687Z,102582.25
2022-08-07T09:50:00.733Z,102595.19
2022-08-07T09:52:34.295Z,102582.97
2022-08-07T09:55:24.866Z,102565.53
2022-08-07T09:58:32.519Z,102563.66
2022-08-07T10:01:51.646Z,102558.41
2022-08-07T10:04:32.944Z,102557.06
2022-08-07T10:07:31.642Z,102549.91
2022-08-07T10:10:21.726Z,102549.53
2022-08-07T10:14:00.337Z,102539.56
2022-08-07T10:16:52.328Z,102538.97
2022-08-07T10:19:38.382Z,102537.09
2022-08-07T10:22:43.175Z,102522.47
2022-08-07T10:25:23.060Z,102543.19
2022-08-07T10:28:18.735Z,102529.81
2022-08-07T10:30:59.304Z,102531.22
2022-08-07T10:34:05.951Z,102535.81
2022-08-07T10:36:52.922Z,102527.63
2022-08-07T10:39:41.583Z,102536.28
2022-08-07T10:42:36.740Z,102524.63
2022-08-07T10:45:19.351Z,102526.78
2022-08-07T10:48:03.359Z,102528.59
2022-08-07T10:50:42.450Z,102528.72
2022-08-07T10:53:26.567Z,102517.78
2022-08-07T10:56:04.985Z,102526.53
2022-08-07T10:58:48.172Z,102517.31
2022-08-07T11:01:52.060Z,102521.72
2022-08-07T11:04:46.331Z,102513.91
2022-08-07T11:07:58.809Z,102502.19
2022-08-07T11:10:20.825Z,102501.44
2022-08-07T11:13:02.097Z,102488.97
2022-08-07T11:15:39.781Z,102498.09
2022-08-07T11:18:19.610Z,102493.59
2022-08-07T11:20:53.745Z,102497.41
2022-08-07T11:23:38.612Z,102495.69
2022-08-07T11:26:14.621Z,102507.94
2022-08-07T11:28:53.446Z,102500.44
2022-08-07T11:31:34.934Z,102490.16
2022-08-07T11:34:12.763Z,102477.78
2022-08-07T11:37:00.955Z,102477.47
2022-08-07T11:39:59.993Z,102480.47
2022-08-07T11:42:56.963Z,102476.34
2022-08-07T11:45:36.431Z,102484.91
2022-08-07T11:48:31.433Z,102480.00
2022-08-07T11:51:40.889Z,102488.03
2022-08-07T11:54:25.279Z,102468.31
2022-08-07T11:57:11.382Z,102468.09
2022-08-07T12:00:12.269Z,102465.75
2022-08-07T12:03:42.198Z,102462.47
2022-08-07T12:06:37.714Z,102453.00
2022-08-07T12:09:23.688Z,102441.84
2022-08-07T12:12:09.027Z,102429.94
2022-08-07T12:14:56.185Z,102432.69
2022-08-07T12:17:38.557Z,102437.28
2022-08-07T12:20:29.707Z,102438.56
2022-08-07T12:23:21.474Z,102429.63
2022-08-07T12:26:30.077Z,102434.88
2022-08-07T12:29:11.314Z,102424.59
2022-08-07T12:32:02.253Z,102420.56
2022-08-07T12:34:37.919Z,102417.66
2022-08-07T12:37:16.989Z,102420.63
2022-08-07T12:39:57.401Z,102423.00
2022-08-07T12:42:31.783Z,102417.88
2022-08-07T12:45:10.323Z,102407.63
2022-08-07T12:47:49.367Z,102422.91
2022-08-07T12:50:38.061Z,102409.84
2022-08-07T12:53:17.745Z,102407.41
2022-08-07T12:56:03.318Z,102411.16
2022-08-07T12:58:40.175Z,102408.75
2022-08-07T13:01:28.031Z,102407.72
2022-08-07T13:04:34.394Z,102413.72
2022-08-07T13:08:11.323Z,102422.19
2022-08-07T13:10:39.802Z,102422.41
2022-08-07T13:13:48.487Z,102424.44
2022-08-07T13:16:29.453Z,102419.16
2022-08-07T13:19:18.046Z,102421.25
2022-08-07T13:22:02.979Z,102413.41
2022-08-07T13:24:52.152Z,102403.50
2022-08-07T13:28:05.790Z,102392.41
2022-08-07T13:30:19.099Z,102387.03
2022-08-07T13:33:16.408Z,102389.66
2022-08-07T13:36:05.589Z,102378.31
2022-08-07T13:38:42.784Z,102367.31
2022-08-07T13:41:22.327Z,102380.19
2022-08-07T13:43:55.941Z,102375.38
2022-08-07T13:46:33.796Z,102379.41
2022-08-07T13:50:34.440Z,102373.53
2022-08-07T13:52:22.697Z,102371.78
2022-08-07T13:54:56.375Z,102377.06
2022-08-07T13:57:37.583Z,102385.66
2022-08-07T14:00:13.552Z,102397.91
2022-08-07T14:02:59.129Z,102381.00
2022-08-07T14:05:37.939Z,102386.59
2022-08-07T14:08:09.777Z,102380.28
2022-08-07T14:10:42.198Z,102376.78
2022-08-07T14:13:16.906Z,102361.91
2022-08-07T14:15:56.832Z,102363.97
2022-08-07T14:18:32.866Z,102353.44
2022-08-07T14:21:21.101Z,102363.38
2022-08-07T14:24:03.556Z,102354.06
2022-08-07T14:26:38.450Z,102356.47
2022-08-07T14:30:05.872Z,102351.25
2022-08-07T14:32:04.789Z,102338.47
2022-08-07T14:37:36.392Z,102341.44
2022-08-07T14:40:15.985Z,102346.41
2022-08-07T14:43:55.486Z,102342.38
2022-08-07T14:45:49.770Z,102348.03
2022-08-07T14:48:22.174Z,102362.34
2022-08-07T14:54:20.875Z,102354.06
2022-08-07T14:56:43.542Z,102340.81
2022-08-07T15:00:03.327Z,102340.06
2022-08-07T15:02:31.824Z,102332.94
2022-08-07T15:05:01.743Z,102330.44
2022-08-07T15:07:51.412Z,102334.47
2022-08-07T15:10:26.599Z,102332.13
2022-08-07T15:13:00.895Z,102329.34
2022-08-07T15:15:38.653Z,102327.47
2022-08-07T15:18:14.081Z,102335.72
2022-08-07T15:25:02.366Z,102329.94
2022-08-07T15:26:39.458Z,102320.50
2022-08-07T15:32:05.010Z,102307.09
2022-08-07T15:34:50.526Z,102318.00
2022-08-07T15:38:17.285Z,102319.84
2022-08-07T15:46:32.460Z,102320.25
2022-08-07T15:52:02.924Z,102304.16
2022-08-07T15:54:39.484Z,102300.84
2022-08-07T15:57:28.030Z,102296.81
2022-08-07T16:00:04.359Z,102288.34
2022-08-07T16:02:41.892Z,102285.56
2022-08-07T16:05:19.592Z,102293.97
2022-08-07T16:08:30.696Z,102284.13
2022-08-07T16:10:47.314Z,102274.41
2022-08-07T16:13:59.738Z,102279.47
2022-08-07T16:16:48.006Z,102282.78
2022-08-07T16:19:41.788Z,102278.56
2022-08-07T16:22:36.477Z,102285.34
2022-08-07T16:25:23.103Z,102271.13
2022-08-07T16:28:14.228Z,102276.81
2022-08-07T16:31:03.434Z,102266.53
2022-08-07T16:34:01.955Z,102272.16
2022-08-07T16:37:00.194Z,102274.59
2022-08-07T16:39:58.862Z,102277.63
2022-08-07T16:42:46.657Z,102276.06
2022-08-07T16:46:47.224Z,102283.94
2022-08-07T16:49:04.197Z,102281.44
2022-08-07T16:51:57.801Z,102274.47
2022-08-07T16:54:54.855Z,102283.06
2022-08-07T16:58:02.125Z,102280.91
2022-08-07T17:00:41.588Z,102281.84
2022-08-07T17:03:19.794Z,102284.72
2022-08-07T17:06:31.483Z,102283.78
2022-08-07T17:09:14.308Z,102289.75
2022-08-07T17:12:01.786Z,102281.59
2022-08-07T17:14:38.630Z,102277.84
2022-08-07T17:17:15.406Z,102275.09
2022-08-07T17:20:01.487Z,102274.84
2022-08-07T17:22:38.806Z,102269.09
2022-08-07T17:25:17.348Z,102281.09
2022-08-07T17:27:59.436Z,102278.13
2022-08-07T17:30:36.615Z,102278.19
2022-08-07T17:33:39.115Z,102271.97
2022-08-07T17:36:21.085Z,102284.56
2022-08-07T17:39:10.173Z,102269.56
2022-08-07T17:42:03.097Z,102276.28
2022-08-07T17:44:46.877Z,102272.53
2022-08-07T17:47:38.380Z,102272.50
2022-08-07T17:50:19.545Z,102279.25
2022-08-07T17:52:55.300Z,102278.84
2022-08-07T17:55:54.787Z,102269.72
2022-08-07T17:58:34.113Z,102279.25
2022-08-07T18:01:18.083Z,102279.88
2022-08-07T18:04:07.540Z,102284.88
2022-08-07T18:06:43.003Z,102283.75
2022-08-07T18:10:06.502Z,102285.53
2022-08-07T18:12:28.762Z,102287.84
2022-08-07T18:15:08.669Z,102287.84
2022-08-07T18:18:36.656Z,102286.13
2022-08-07T18:21:08.041Z,102296.38
2022-08-07T18:23:50.645Z,102296.09
2022-08-07T18:26:45.824Z,102303.56
2022-08-07T18:30:07.091Z,102309.78
2022-08-07T18:32:31.490Z,102307.53
2022-08-07T18:35:18.954Z,102314.03
2022-08-07T18:38:55.880Z,102317.19
2022-08-07T18:41:09.393Z,102311.34
2022-08-07T18:43:57.365Z,102318.69
2022-08-07T18:46:33.363Z,102323.03
2022-08-07T18:50:30.967Z,102319.75
2022-08-07T18:52:37.532Z,102330.19
2022-08-07T18:55:40.778Z,102336.75
2022-08-07T18:58:26.562Z,102334.69
2022-08-07T19:01:06.460Z,102335.69
2022-08-07T19:03:49.496Z,102342.84
2022-08-07T19:06:33.859Z,102343.00
2022-08-07T19:09:55.471Z,102347.69
2022-08-07T19:12:15.609Z,102348.38
2022-08-07T19:15:02.781Z,102360.97
2022-08-07T19:18:03.218Z,102358.66
2022-08-07T19:21:08.486Z,102360.53
2022-08-07T19:23:58.558Z,102363.28
2022-08-07T19:26:39.470Z,102365.22
2022-08-07T19:31:03.179Z,102374.38
2022-08-07T19:32:17.392Z,102380.38
2022-08-07T19:35:00.908Z,102383.97
2022-08-07T19:37:55.287Z,102382.72
2022-08-07T19:40:31.639Z,102388.53
2022-08-07T19:43:09.386Z,102388.81
2022-08-07T19:46:06.016Z,102391.69
2022-08-07T19:48:42.959Z,102399.50
2022-08-07T19:51:20.079Z,102395.72
2022-08-07T19:54:32.023Z,102390.94
2022-08-07T19:57:51.157Z,102405.72
2022-08-07T19:59:42.841Z,102405.34
2022-08-07T20:02:19.630Z,102415.25
2022-08-07T20:04:52.018Z,102408.69
2022-08-07T20:07:47.674Z,102414.34
2022-08-07T20:10:35.653Z,102419.91
2022-08-07T20:13:23.271Z,102422.47
2022-08-07T20:15:57.935Z,102420.19
2022-08-07T20:18:33.432Z,102428.53
2022-08-07T20:21:21.235Z,102424.94
2022-08-07T20:23:57.827Z,102429.13
2022-08-07T20:26:38.717Z,102422.81
2022-08-07T20:29:48.856Z,102430.31
2022-08-07T20:32:11.518Z,102435.38
2022-08-07T20:34:53.892Z,102422.81
2022-08-07T20:37:29.287Z,102426.78
2022-08-07T20:40:05.118Z,102425.63
2022-08-07T20:42:56.267Z,102425.03
2022-08-07T20:45:33.640Z,102422.47
2022-08-07T20:48:28.606Z,102421.25
2022-08-07T20:51:01.779Z,102423.78
2022-08-07T20:54:01.988Z,102425.84
2022-08-07T20:56:26.756Z,102427.69
2022-08-07T20:59:02.548Z,102432.91
2022-08-07T21:01:36.520Z,102437.19
2022-08-07T21:04:28.315Z,102426.03
2022-08-07T21:07:04.331Z,102426.81
2022-08-07T21:09:52.030Z,102430.09
2022-08-07T21:12:31.506Z,102436.44
2022-08-07T21:15:06.620Z,102437.78
2022-08-07T21:18:03.662Z,102442.53
2022-08-07T21:20:33.545Z,102440.50
2022-08-07T21:23:08.846Z,102438.44
2022-08-07T21:25:56.168Z,102438.91
2022-08-07T21:28:50.416Z,102432.84
2022-08-07T21:31:49.646Z,102435.75
2022-08-07T21:34:31.845Z,102436.06
2022-08-07T21:37:05.315Z,102440.88
2022-08-07T21:39:48.562Z,102442.13
2022-08-07T21:42:42.946Z,102441.44
2022-08-07T21:46:05.219Z,102442.97
2022-08-07T21:48:28.832Z,102444.75
2022-08-07T21:51:19.797Z,102432.78
2022-08-07T21:53:54.956Z,102437.63
2022-08-07T21:56:37.694Z,102436.84
2022-08-07T21:59:29.414Z,102443.50
2022-08-07T22:02:10.825Z,102445.13
2022-08-07T22:04:53.776Z,102442.84
2022-08-07T22:07:31.616Z,102440.66
2022-08-07T22:10:15.195Z,102443.38
2022-08-07T22:12:49.638Z,102438.69
2022-08-07T22:16:38.840Z,102445.41
2022-08-07T22:18:23.008Z,102443.47
2022-08-07T22:20:56.423Z,102440.44
2022-08-07T22:23:33.779Z,102446.50
2022-08-07T22:26:16.220Z,102447.41
2022-08-07T22:28:54.834Z,102443.16
2022-08-07T22:31:58.907Z,102445.78
2022-08-07T22:34:31.663Z,102456.50
2022-08-07T22:37:14.712Z,102449.84
2022-08-07T22:39:53.992Z,102462.69
2022-08-07T22:42:30.486Z,102456.00
2022-08-07T22:45:03.424Z,102459.00
2022-08-07T22:47:59.477Z,102466.00
2022-08-07T22:50:57.092Z,102458.81
2022-08-07T22:54:05.519Z,102464.63
2022-08-07T22:56:53.706Z,102460.06
2022-08-07T22:59:52.197Z,102457.44
2022-08-07T23:02:35.795Z,102466.94
2022-08-07T23:06:09.663Z,102466.66
2022-08-07T23:08:53.027Z,102471.56
2022-08-07T23:11:45.765Z,102472.66
2022-08-07T23:14:38.980Z,102482.41
2022-08-07T23:17:26.720Z,102487.84
2022-08-07T23:20:40.631Z,102481.69
2022-08-07T23:24:07.067Z,102477.75
2022-08-07T23:27:02.817Z,102482.94
2022-08-07T23:30:37.497Z,102483.97
2022-08-07T23:34:34.557Z,102484.13
2022-08-07T23:36:17.236Z,102479.94
2022-08-07T23:39:08.542Z,102480.47
2022-08-07T23:42:04.197Z,102485.22
2022-08-07T23:45:15.269Z,102476.94
2022-08-07T23:48:10.740Z,102473.25
2022-08-07T23:50:49.718Z,102480.19
2022-08-07T23:53:50.875Z,102479.66
2022-08-07T23:56:27.649Z,102480.88
